createdAt,value
2022-08-21T00:03:07.125Z,3.80
2022-08-21T00:08:09.362Z,4.07
2022-08-21T00:13:13.349Z,3.65
2022-08-21T00:18:20.845Z,3.20
2022-08-21T00:23:23.127Z,3.05
2022-08-21T00:28:24.861Z,2.80
2022-08-21T00:33:27.551Z,3.13
2022-08-21T00:38:29.504Z,3.10
2022-08-21T00:43:33.771Z,3.20
2022-08-21T00:48:35.948Z,3.30
2022-08-21T00:53:40.484Z,4.53
2022-08-21T00:58:43.884Z,5.20
2022-08-21T01:03:46.756Z,3.75
2022-08-21T01:08:49.137Z,4.00
2022-08-21T01:13:52.804Z,3.67
2022-08-21T01:18:54.732Z,4.00
2022-08-21T01:23:57.656Z,3.63
2022-08-21T01:29:06.596Z,4.88
2022-08-21T01:34:09.459Z,3.85
2022-08-21T01:39:11.263Z,3.90
2022-08-21T01:44:13.029Z,3.65
2022-08-21T01:49:16.556Z,3.95
2022-08-21T01:54:18.360Z,3.53
2022-08-21T01:59:20.956Z,3.40
2022-08-21T02:04:22.748Z,3.55
2022-08-21T02:09:24.723Z,3.80
2022-08-21T02:14:32.569Z,6.93
2022-08-21T02:19:39.444Z,7.30
2022-08-21T02:24:53.920Z,7.10
2022-08-21T02:29:58.074Z,6.45
2022-08-21T02:35:00.068Z,4.67
2022-08-21T02:40:02.632Z,6.50
2022-08-21T02:45:04.984Z,5.07
2022-08-21T02:50:08.535Z,4.30
2022-08-21T02:55:10.291Z,4.68
2022-08-21T03:00:14.025Z,5.28
2022-08-21T03:05:17.336Z,4.75
2022-08-21T03:10:21.333Z,5.57
2022-08-21T03:15:24.844Z,5.10
2022-08-21T03:20:29.256Z,5.22
2022-08-21T03:25:40.086Z,4.82
2022-08-21T03:30:44.582Z,5.72
2022-08-21T03:35:53.295Z,4.63
2022-08-21T03:40:55.048Z,4.90
2022-08-21T03:45:56.854Z,6.18
2022-08-21T03:50:58.679Z,4.53
2022-08-21T03:56:00.611Z,4.55
2022-08-21T04:01:03.659Z,5.18
2022-08-21T04:06:06.377Z,4.95
2022-08-21T04:11:08.717Z,3.92
2022-08-21T04:16:10.684Z,4.78
2022-08-21T04:21:13.413Z,5.97
2022-08-21T04:26:15.337Z,5.50
2022-08-21T04:31:17.129Z,6.43
2022-08-21T04:36:23.645Z,6.93
2022-08-21T04:41:28.309Z,6.18
2022-08-21T04:46:30.504Z,6.15
2022-08-21T04:51:38.452Z,4.65
2022-08-21T04:56:46.388Z,4.70
2022-08-21T05:01:48.396Z,5.38
2022-08-21T05:06:51.821Z,5.65
2022-08-21T05:11:54.078Z,6.73
2022-08-21T05:16:55.803Z,6.72
2022-08-21T05:21:58.620Z,6.57
2022-08-21T05:27:00.584Z,6.15
2022-08-21T05:32:13.452Z,3.78
2022-08-21T05:37:15.344Z,4.65
2022-08-21T05:42:17.494Z,4.80
2022-08-21T05:47:19.229Z,4.82
2022-08-21T05:52:21.906Z,4.15
2022-08-21T05:57:24.207Z,5.55
2022-08-21T06:02:26.174Z,5.78
2022-08-21T06:07:27.913Z,4.30
2022-08-21T06:12:29.785Z,4.75
2022-08-21T06:17:31.625Z,4.82
2022-08-21T06:22:33.410Z,5.10
2022-08-21T06:27:35.228Z,6.28
2022-08-21T06:32:37.388Z,5.05
2022-08-21T06:37:39.169Z,6.07
2022-08-21T06:42:42.687Z,4.85
2022-08-21T06:47:44.643Z,5.28
2022-08-21T06:52:46.402Z,4.95
2022-08-21T06:57:52.566Z,8.20
2022-08-21T07:02:54.731Z,5.53
2022-08-21T07:07:58.001Z,5.20
2022-08-21T07:13:01.200Z,5.47
2022-08-21T07:18:03.716Z,6.70
2022-08-21T07:23:10.302Z,7.57
2022-08-21T07:28:12.081Z,6.75
2022-08-21T07:33:13.846Z,6.20
2022-08-21T07:38:15.595Z,7.47
2022-08-21T07:43:19.015Z,9.35
2022-08-21T07:48:24.097Z,5.80
2022-08-21T07:53:25.833Z,8.00
2022-08-21T07:58:27.578Z,7.15
2022-08-21T08:03:29.673Z,8.43
2022-08-21T08:08:32.348Z,6.90
2022-08-21T08:13:40.071Z,6.40
2022-08-21T08:18:43.094Z,6.20
2022-08-21T08:23:46.065Z,5.73
2022-08-21T08:28:48.696Z,6.37
2022-08-21T08:33:50.484Z,5.65
2022-08-21T08:38:52.228Z,4.97
2022-08-21T08:44:05.413Z,5.82
2022-08-21T08:49:19.722Z,5.60
2022-08-21T08:54:36.357Z,4.72
2022-08-21T08:59:43.897Z,5.47
2022-08-21T09:04:48.971Z,4.35
2022-08-21T09:10:13.934Z,5.82
2022-08-21T09:15:37.269Z,4.38
2022-08-21T09:20:51.090Z,6.97
2022-08-21T09:26:07.836Z,5.35
2022-08-21T09:31:31.619Z,5.47
2022-08-21T09:36:42.412Z,5.43
2022-08-21T09:41:44.542Z,4.13
2022-08-21T09:46:53.398Z,4.60
2022-08-21T09:51:55.798Z,3.70
2022-08-21T09:57:29.361Z,4.00
2022-08-21T10:02:34.738Z,2.60
2022-08-21T10:07:38.917Z,3.47
2022-08-21T10:12:56.595Z,3.50
2022-08-21T10:18:20.042Z,4.03
2022-08-21T10:23:47.821Z,3.85
2022-08-21T10:29:28.592Z,3.10
2022-08-21T10:34:44.031Z,3.95
2022-08-21T10:40:01.478Z,3.00
2022-08-21T10:45:20.169Z,2.70
2022-08-21T10:50:40.809Z,2.58
2022-08-21T10:56:02.185Z,2.65
2022-08-21T11:01:19.498Z,2.15
2022-08-21T11:06:25.825Z,1.98
2022-08-21T11:11:59.471Z,1.70
2022-08-21T11:17:21.413Z,2.13
2022-08-21T11:22:54.571Z,2.17
2022-08-21T11:28:10.889Z,1.95
2022-08-21T11:33:53.171Z,1.65
2022-08-21T11:39:12.876Z,1.77
2022-08-21T11:44:49.983Z,2.17
2022-08-21T11:50:04.660Z,1.92
2022-08-21T11:55:23.624Z,1.92
2022-08-21T12:00:36.599Z,1.85
2022-08-21T12:05:42.654Z,1.80
2022-08-21T12:11:17.857Z,1.80
2022-08-21T12:16:38.277Z,2.13
2022-08-21T12:22:02.170Z,1.95
2022-08-21T12:27:27.064Z,1.90
2022-08-21T12:32:47.675Z,1.80
2022-08-21T12:38:21.022Z,1.60
2022-08-21T12:43:47.251Z,2.00
2022-08-21T12:49:03.910Z,2.17
2022-08-21T12:54:05.718Z,1.83
2022-08-21T12:59:12.900Z,2.15
2022-08-21T13:04:21.246Z,1.60
2022-08-21T13:09:29.502Z,1.88
2022-08-21T13:14:47.417Z,1.85
2022-08-21T13:20:01.325Z,1.80
2022-08-21T13:25:10.235Z,2.00
2022-08-21T13:30:21.926Z,1.80
2022-08-21T13:35:26.679Z,1.92
2022-08-21T13:40:40.928Z,1.70
2022-08-21T13:45:48.558Z,1.88
2022-08-21T13:50:51.267Z,1.80
2022-08-21T13:55:57.384Z,2.17
2022-08-21T14:01:04.678Z,2.20
2022-08-21T14:06:22.130Z,2.25
2022-08-21T14:11:24.861Z,2.28
2022-08-21T14:16:43.052Z,2.15
2022-08-21T14:21:45.061Z,2.00
2022-08-21T14:26:53.255Z,2.30
2022-08-21T14:32:00.515Z,2.08
2022-08-21T14:37:02.711Z,2.35
2022-08-21T14:42:04.815Z,1.77
2022-08-21T14:47:06.739Z,2.00
2022-08-21T14:52:08.591Z,2.10
2022-08-21T14:57:13.091Z,1.80
2022-08-21T15:02:14.887Z,1.80
2022-08-21T15:07:16.624Z,1.87
2022-08-21T15:12:18.540Z,1.70
2022-08-21T15:17:20.724Z,1.80
2022-08-21T15:22:28.019Z,2.15
2022-08-21T15:27:30.972Z,1.75
2022-08-21T15:32:32.728Z,1.80
2022-08-21T15:37:34.848Z,1.73
2022-08-21T15:42:39.514Z,1.83
2022-08-21T15:47:46.353Z,2.17
2022-08-21T15:52:48.684Z,1.70
2022-08-21T15:57:57.877Z,1.88
2022-08-21T16:03:03.842Z,1.92
2022-08-21T16:08:06.225Z,1.88
2022-08-21T16:13:17.339Z,1.77
2022-08-21T16:18:20.443Z,2.05
2022-08-21T16:23:22.216Z,2.00
2022-08-21T16:28:24.657Z,1.70
2022-08-21T16:33:49.439Z,1.83
2022-08-21T16:38:51.652Z,1.85
2022-08-21T16:43:53.890Z,1.70
2022-08-21T16:48:57.079Z,1.70
2022-08-21T16:53:59.147Z,1.63
2022-08-21T16:59:01.603Z,1.70
2022-08-21T17:04:03.696Z,1.83
2022-08-21T17:09:05.557Z,2.10
2022-08-21T17:14:11.395Z,2.13
2022-08-21T17:19:13.601Z,2.60
2022-08-21T17:24:15.751Z,2.00
2022-08-21T17:29:20.736Z,2.13
2022-08-21T17:34:23.311Z,2.10
2022-08-21T17:39:30.715Z,1.95
2022-08-21T17:44:32.481Z,2.00
2022-08-21T17:49:34.686Z,1.80
2022-08-21T17:54:37.923Z,1.90
2022-08-21T17:59:40.429Z,1.73
2022-08-21T18:04:42.251Z,1.83
2022-08-21T18:09:44.139Z,1.73
2022-08-21T18:14:46.147Z,1.60
2022-08-21T18:19:49.630Z,1.67
2022-08-21T18:24:51.781Z,1.50
2022-08-21T18:29:57.087Z,1.70
2022-08-21T18:35:02.551Z,1.90
2022-08-21T18:40:08.795Z,2.13
2022-08-21T18:45:13.267Z,2.28
2022-08-21T18:50:18.328Z,2.00
2022-08-21T18:55:21.531Z,2.05
2022-08-21T19:00:27.582Z,2.25
2022-08-21T19:05:29.382Z,2.10
2022-08-21T19:10:31.621Z,1.60
2022-08-21T19:15:35.735Z,2.22
2022-08-21T19:20:42.089Z,1.90
2022-08-21T19:25:51.813Z,1.73
2022-08-21T19:31:24.001Z,1.80
2022-08-21T19:36:25.936Z,2.00
2022-08-21T19:41:31.316Z,2.10
2022-08-21T19:46:36.984Z,1.95
2022-08-21T19:51:38.997Z,1.98
2022-08-21T19:56:40.849Z,2.22
2022-08-21T20:01:43.398Z,1.80
2022-08-21T20:06:45.392Z,1.80
2022-08-21T20:11:51.631Z,2.00
2022-08-21T20:16:54.235Z,2.35
2022-08-21T20:21:58.238Z,1.90
2022-08-21T20:27:02.699Z,2.00
2022-08-21T20:32:12.183Z,2.17
2022-08-21T20:37:14.280Z,1.77
2022-08-21T20:42:36.950Z,1.90
2022-08-21T20:47:39.214Z,1.90
2022-08-21T20:52:41.590Z,2.00
2022-08-21T20:57:52.407Z,2.22
2022-08-21T21:03:07.771Z,1.42
2022-08-21T21:08:32.740Z,2.17
2022-08-21T21:13:52.482Z,2.05
2022-08-21T21:19:01.645Z,1.90
2022-08-21T21:24:09.435Z,2.13
2022-08-21T21:29:26.335Z,2.00
2022-08-21T21:34:39.533Z,1.90
2022-08-21T21:39:46.629Z,1.60
2022-08-21T21:45:25.056Z,1.70
2022-08-21T21:50:53.382Z,1.48
2022-08-21T21:56:05.826Z,2.00
2022-08-21T22:01:16.579Z,1.70
2022-08-21T22:06:41.445Z,1.95
2022-08-21T22:12:12.653Z,1.70
2022-08-21T22:17:34.236Z,1.80
2022-08-21T22:22:38.861Z,1.80
2022-08-21T22:27:44.606Z,1.52
2022-08-21T22:32:50.323Z,1.75
2022-08-21T22:37:59.344Z,1.90
2022-08-21T22:43:29.293Z,1.83
2022-08-21T22:48:38.886Z,1.95
2022-08-21T22:53:53.496Z,1.95
2022-08-21T22:59:10.346Z,2.10
2022-08-21T23:04:24.757Z,2.08
2022-08-21T23:09:46.924Z,1.90
2022-08-21T23:14:54.616Z,2.40
2022-08-21T23:20:26.988Z,2.40
2022-08-21T23:25:53.273Z,2.80
2022-08-21T23:31:18.674Z,2.85
2022-08-21T23:37:12.367Z,2.35
2022-08-21T23:42:51.372Z,3.00
2022-08-21T23:48:29.647Z,2.75
2022-08-21T23:53:38.547Z,2.50
2022-08-21T23:58:57.439Z,2.70
